Portada
METAR-TAF:

METAR-TAF

Aeroports :

Hua Hin, Tailàndia

latitud: 12-35N, longitud: 099-57E, altitud: 5 m

Observació

L'informe es va fer fa 4 hores i 56 minuts, a les 11:00 UTC
Vent 3 kt del Oest/Sud-Oest, variant entre Sud i Oest
Temperatura 29°C
Humitat 74%
Pressió 1009 hPa
Visibilitat 10 km o més
Núvols disperses a una alçada de 2800 ft

METAR: VTPH 241100Z 24003KT 190V280 9999 SCT028 29/24 Q1009 NOSIG

Hora: 22:56 (15:56 UTC)

Pronòstic

L'informe es va fer fa 4 hores i 56 minuts, a les 11:00 UTC
Pronòstic vàlid del 24 a les 12 UTC al 25 a les 12 UTC
Vent kt del Nord
Visibilitat 10 km o més
Escasses núvols a una alçada de 3000 ft
Núvols disperses a una alçada de 10000 ft
Evolucionant progressivament
l' 25 a les 02 UTC al 25 a les 04 UTC
Vent 5 kt del Sud-Est
Núvols disperses a una alçada de 3000 ft

TAF: VTPH 241100Z 2412/2512 00000KT 9999 FEW030 SCT100 BECMG 2502/2504 14005KT SCT030

Observacions i pronòstics meteorològics de més de 4000 aeroports (METAR i TAF).

Les estacions disponibles són els punts grocs i vermells al mapa.

Posi el ratolí al punt desitjat per veure el nom de l'estació.

Feu clic per veure les observacions i els pronòstics meteorològics.

Per canviar el mapa: feu clic els botons verds amb una creu de color negre per apropar; al botó verd amb un guió per allunyar la imatge; o en les fletxes verdes per a mapes adjacents.


METAR-TAF: